sensor_id;sensor_type;location;lat;lon;timestamp;P1;durP1;ratioP1;P2;durP2;ratioP2
59024;SDS011;44806;48.008;13.666;2024-02-14T00:02:19;15.63;;;3.20;;
59024;SDS011;44806;48.008;13.666;2024-02-14T00:04:46;9.40;;;3.33;;
59024;SDS011;44806;48.008;13.666;2024-02-14T00:07:13;12.88;;;4.03;;
59024;SDS011;44806;48.008;13.666;2024-02-14T00:09:40;12.18;;;4.40;;
59024;SDS011;44806;48.008;13.666;2024-02-14T00:12:07;12.82;;;3.92;;
59024;SDS011;44806;48.008;13.666;2024-02-14T00:14:37;11.25;;;4.18;;
59024;SDS011;44806;48.008;13.666;2024-02-14T00:17:04;11.10;;;3.55;;
59024;SDS011;44806;48.008;13.666;2024-02-14T00:19:32;10.30;;;4.05;;
59024;SDS011;44806;48.008;13.666;2024-02-14T00:21:59;11.75;;;3.88;;
59024;SDS011;44806;48.008;13.666;2024-02-14T00:24:26;10.07;;;4.25;;
59024;SDS011;44806;48.008;13.666;2024-02-14T00:26:54;9.70;;;4.00;;
59024;SDS011;44806;48.008;13.666;2024-02-14T00:29:22;11.23;;;3.65;;
59024;SDS011;44806;48.008;13.666;2024-02-14T00:31:50;10.60;;;4.22;;
59024;SDS011;44806;48.008;13.666;2024-02-14T00:34:17;11.75;;;3.65;;
59024;SDS011;44806;48.008;13.666;2024-02-14T00:36:44;13.25;;;3.85;;
59024;SDS011;44806;48.008;13.666;2024-02-14T00:39:11;12.80;;;4.47;;
59024;SDS011;44806;48.008;13.666;2024-02-14T00:41:38;9.45;;;3.70;;
59024;SDS011;44806;48.008;13.666;2024-02-14T00:44:05;11.82;;;5.63;;
59024;SDS011;44806;48.008;13.666;2024-02-14T00:46:32;9.60;;;3.70;;
59024;SDS011;44806;48.008;13.666;2024-02-14T00:49:01;8.73;;;3.25;;
59024;SDS011;44806;48.008;13.666;2024-02-14T00:51:28;12.75;;;3.70;;
59024;SDS011;44806;48.008;13.666;2024-02-14T00:53:55;9.05;;;3.25;;
59024;SDS011;44806;48.008;13.666;2024-02-14T00:56:22;10.13;;;3.58;;
59024;SDS011;44806;48.008;13.666;2024-02-14T00:58:49;6.10;;;2.67;;
59024;SDS011;44806;48.008;13.666;2024-02-14T01:01:16;7.03;;;2.63;;
59024;SDS011;44806;48.008;13.666;2024-02-14T01:03:43;7.68;;;2.90;;
59024;SDS011;44806;48.008;13.666;2024-02-14T01:06:12;6.90;;;3.00;;
59024;SDS011;44806;48.008;13.666;2024-02-14T01:08:40;6.22;;;1.95;;
59024;SDS011;44806;48.008;13.666;2024-02-14T01:11:07;5.63;;;2.33;;
59024;SDS011;44806;48.008;13.666;2024-02-14T01:13:34;7.78;;;2.85;;
59024;SDS011;44806;48.008;13.666;2024-02-14T01:16:02;7.55;;;2.85;;
59024;SDS011;44806;48.008;13.666;2024-02-14T01:18:30;13.38;;;2.40;;
59024;SDS011;44806;48.008;13.666;2024-02-14T01:20:57;7.75;;;2.88;;
59024;SDS011;44806;48.008;13.666;2024-02-14T01:23:27;6.28;;;2.42;;
59024;SDS011;44806;48.008;13.666;2024-02-14T01:25:54;7.88;;;2.50;;
59024;SDS011;44806;48.008;13.666;2024-02-14T01:28:21;7.00;;;2.47;;
59024;SDS011;44806;48.008;13.666;2024-02-14T01:30:48;7.63;;;2.72;;
59024;SDS011;44806;48.008;13.666;2024-02-14T01:33:15;7.30;;;2.83;;
59024;SDS011;44806;48.008;13.666;2024-02-14T01:35:42;5.97;;;2.25;;
59024;SDS011;44806;48.008;13.666;2024-02-14T01:38:09;8.65;;;2.45;;
59024;SDS011;44806;48.008;13.666;2024-02-14T01:40:38;9.02;;;2.35;;
59024;SDS011;44806;48.008;13.666;2024-02-14T01:43:09;6.10;;;1.85;;
59024;SDS011;44806;48.008;13.666;2024-02-14T01:45:37;5.70;;;2.47;;
59024;SDS011;44806;48.008;13.666;2024-02-14T01:48:05;7.50;;;2.67;;
59024;SDS011;44806;48.008;13.666;2024-02-14T01:50:33;9.00;;;2.90;;
59024;SDS011;44806;48.008;13.666;2024-02-14T01:53:01;6.22;;;2.75;;
59024;SDS011;44806;48.008;13.666;2024-02-14T01:55:30;7.80;;;2.60;;
59024;SDS011;44806;48.008;13.666;2024-02-14T01:57:58;8.35;;;2.90;;
59024;SDS011;44806;48.008;13.666;2024-02-14T02:00:25;7.35;;;2.55;;
59024;SDS011;44806;48.008;13.666;2024-02-14T02:02:52;7.30;;;2.10;;
59024;SDS011;44806;48.008;13.666;2024-02-14T02:05:20;6.95;;;2.30;;
59024;SDS011;44806;48.008;13.666;2024-02-14T02:07:47;9.43;;;2.35;;
59024;SDS011;44806;48.008;13.666;2024-02-14T02:10:15;7.03;;;2.40;;
59024;SDS011;44806;48.008;13.666;2024-02-14T02:12:42;8.38;;;2.17;;
59024;SDS011;44806;48.008;13.666;2024-02-14T02:15:10;5.80;;;2.40;;
59024;SDS011;44806;48.008;13.666;2024-02-14T02:17:40;8.43;;;2.40;;
59024;SDS011;44806;48.008;13.666;2024-02-14T02:20:08;9.18;;;2.63;;
59024;SDS011;44806;48.008;13.666;2024-02-14T02:22:36;7.10;;;2.97;;
59024;SDS011;44806;48.008;13.666;2024-02-14T02:25:05;8.15;;;2.45;;
59024;SDS011;44806;48.008;13.666;2024-02-14T02:27:33;6.95;;;2.80;;
59024;SDS011;44806;48.008;13.666;2024-02-14T02:30:03;5.97;;;2.53;;
59024;SDS011;44806;48.008;13.666;2024-02-14T02:32:31;9.05;;;2.40;;
59024;SDS011;44806;48.008;13.666;2024-02-14T02:34:58;6.88;;;2.63;;
59024;SDS011;44806;48.008;13.666;2024-02-14T02:37:26;8.07;;;3.22;;
59024;SDS011;44806;48.008;13.666;2024-02-14T02:39:54;6.35;;;2.95;;
59024;SDS011;44806;48.008;13.666;2024-02-14T02:42:23;12.18;;;2.70;;
59024;SDS011;44806;48.008;13.666;2024-02-14T02:44:50;8.73;;;3.65;;
59024;SDS011;44806;48.008;13.666;2024-02-14T02:47:17;9.52;;;3.38;;
59024;SDS011;44806;48.008;13.666;2024-02-14T02:49:44;9.27;;;2.55;;
59024;SDS011;44806;48.008;13.666;2024-02-14T02:52:11;6.47;;;2.58;;
59024;SDS011;44806;48.008;13.666;2024-02-14T02:54:38;6.63;;;2.63;;
59024;SDS011;44806;48.008;13.666;2024-02-14T02:57:06;5.53;;;2.28;;
59024;SDS011;44806;48.008;13.666;2024-02-14T02:59:35;8.13;;;2.05;;
59024;SDS011;44806;48.008;13.666;2024-02-14T03:02:03;7.88;;;2.88;;
59024;SDS011;44806;48.008;13.666;2024-02-14T03:04:33;8.18;;;2.97;;
59024;SDS011;44806;48.008;13.666;2024-02-14T03:07:00;6.70;;;2.13;;
59024;SDS011;44806;48.008;13.666;2024-02-14T03:09:33;5.18;;;2.00;;
59024;SDS011;44806;48.008;13.666;2024-02-14T03:12:01;12.60;;;2.47;;
59024;SDS011;44806;48.008;13.666;2024-02-14T03:14:28;9.98;;;2.67;;
59024;SDS011;44806;48.008;13.666;2024-02-14T03:16:58;8.50;;;2.63;;
59024;SDS011;44806;48.008;13.666;2024-02-14T03:19:26;8.70;;;3.67;;
59024;SDS011;44806;48.008;13.666;2024-02-14T03:21:53;12.30;;;3.58;;
59024;SDS011;44806;48.008;13.666;2024-02-14T03:24:21;10.38;;;2.83;;
59024;SDS011;44806;48.008;13.666;2024-02-14T03:26:50;11.52;;;3.75;;
59024;SDS011;44806;48.008;13.666;2024-02-14T03:29:18;11.07;;;3.38;;
59024;SDS011;44806;48.008;13.666;2024-02-14T03:34:43;11.73;;;3.30;;
59024;SDS011;44806;48.008;13.666;2024-02-14T03:37:11;8.68;;;3.28;;
59024;SDS011;44806;48.008;13.666;2024-02-14T03:39:38;6.95;;;2.90;;
59024;SDS011;44806;48.008;13.666;2024-02-14T03:42:05;7.45;;;2.85;;
59024;SDS011;44806;48.008;13.666;2024-02-14T03:44:32;8.77;;;3.25;;
59024;SDS011;44806;48.008;13.666;2024-02-14T03:46:59;8.10;;;2.70;;
59024;SDS011;44806;48.008;13.666;2024-02-14T03:49:26;9.10;;;3.22;;
59024;SDS011;44806;48.008;13.666;2024-02-14T03:51:56;8.93;;;3.15;;
59024;SDS011;44806;48.008;13.666;2024-02-14T03:54:24;12.23;;;3.63;;
59024;SDS011;44806;48.008;13.666;2024-02-14T03:56:51;7.72;;;3.45;;
59024;SDS011;44806;48.008;13.666;2024-02-14T03:59:19;8.27;;;3.03;;
59024;SDS011;44806;48.008;13.666;2024-02-14T04:01:49;11.18;;;2.65;;
59024;SDS011;44806;48.008;13.666;2024-02-14T04:04:18;6.13;;;2.17;;
59024;SDS011;44806;48.008;13.666;2024-02-14T04:06:45;8.35;;;2.70;;
59024;SDS011;44806;48.008;13.666;2024-02-14T04:09:14;7.60;;;2.80;;
59024;SDS011;44806;48.008;13.666;2024-02-14T04:11:41;8.57;;;3.40;;
59024;SDS011;44806;48.008;13.666;2024-02-14T04:14:08;9.60;;;4.65;;
59024;SDS011;44806;48.008;13.666;2024-02-14T04:16:36;9.80;;;3.13;;
59024;SDS011;44806;48.008;13.666;2024-02-14T04:19:03;7.43;;;2.38;;
59024;SDS011;44806;48.008;13.666;2024-02-14T04:21:30;8.32;;;3.22;;
59024;SDS011;44806;48.008;13.666;2024-02-14T04:23:58;8.52;;;3.70;;
59024;SDS011;44806;48.008;13.666;2024-02-14T04:26:26;9.65;;;3.10;;
59024;SDS011;44806;48.008;13.666;2024-02-14T04:28:54;7.78;;;2.67;;
59024;SDS011;44806;48.008;13.666;2024-02-14T04:31:21;6.53;;;3.03;;
59024;SDS011;44806;48.008;13.666;2024-02-14T04:33:48;8.25;;;3.45;;
59024;SDS011;44806;48.008;13.666;2024-02-14T04:36:17;7.32;;;2.70;;
59024;SDS011;44806;48.008;13.666;2024-02-14T04:38:46;6.45;;;2.13;;
59024;SDS011;44806;48.008;13.666;2024-02-14T04:41:13;7.10;;;2.85;;
59024;SDS011;44806;48.008;13.666;2024-02-14T04:43:41;9.25;;;3.42;;
59024;SDS011;44806;48.008;13.666;2024-02-14T04:46:09;7.88;;;3.38;;
59024;SDS011;44806;48.008;13.666;2024-02-14T04:48:36;8.57;;;2.60;;
59024;SDS011;44806;48.008;13.666;2024-02-14T04:51:04;8.00;;;2.78;;
59024;SDS011;44806;48.008;13.666;2024-02-14T04:53:31;7.65;;;2.70;;
59024;SDS011;44806;48.008;13.666;2024-02-14T04:55:59;9.75;;;3.95;;
59024;SDS011;44806;48.008;13.666;2024-02-14T04:58:26;13.25;;;3.83;;
59024;SDS011;44806;48.008;13.666;2024-02-14T05:00:54;13.80;;;5.85;;
59024;SDS011;44806;48.008;13.666;2024-02-14T05:03:21;14.35;;;4.80;;
59024;SDS011;44806;48.008;13.666;2024-02-14T05:05:51;11.15;;;4.30;;
59024;SDS011;44806;48.008;13.666;2024-02-14T05:08:18;13.00;;;4.25;;
59024;SDS011;44806;48.008;13.666;2024-02-14T05:10:44;7.63;;;2.72;;
59024;SDS011;44806;48.008;13.666;2024-02-14T05:13:11;9.68;;;3.22;;
59024;SDS011;44806;48.008;13.666;2024-02-14T05:15:40;9.50;;;2.67;;
59024;SDS011;44806;48.008;13.666;2024-02-14T05:18:09;8.95;;;3.78;;
59024;SDS011;44806;48.008;13.666;2024-02-14T05:20:36;6.60;;;2.30;;
59024;SDS011;44806;48.008;13.666;2024-02-14T05:23:04;8.18;;;3.45;;
59024;SDS011;44806;48.008;13.666;2024-02-14T05:25:31;10.70;;;4.68;;
59024;SDS011;44806;48.008;13.666;2024-02-14T05:27:59;11.43;;;3.95;;
59024;SDS011;44806;48.008;13.666;2024-02-14T05:30:26;13.13;;;4.70;;
59024;SDS011;44806;48.008;13.666;2024-02-14T05:32:53;9.82;;;3.88;;
59024;SDS011;44806;48.008;13.666;2024-02-14T05:35:22;13.15;;;4.10;;
59024;SDS011;44806;48.008;13.666;2024-02-14T05:37:49;11.23;;;4.03;;
59024;SDS011;44806;48.008;13.666;2024-02-14T05:40:16;12.90;;;3.90;;
59024;SDS011;44806;48.008;13.666;2024-02-14T05:42:44;10.27;;;2.67;;
59024;SDS011;44806;48.008;13.666;2024-02-14T05:45:11;10.50;;;4.15;;
59024;SDS011;44806;48.008;13.666;2024-02-14T05:47:39;12.90;;;3.80;;
59024;SDS011;44806;48.008;13.666;2024-02-14T05:50:06;11.00;;;4.35;;
59024;SDS011;44806;48.008;13.666;2024-02-14T05:52:37;11.88;;;3.22;;
59024;SDS011;44806;48.008;13.666;2024-02-14T05:55:04;13.95;;;3.30;;
59024;SDS011;44806;48.008;13.666;2024-02-14T05:57:33;7.28;;;2.90;;
59024;SDS011;44806;48.008;13.666;2024-02-14T06:00:00;10.65;;;4.15;;
59024;SDS011;44806;48.008;13.666;2024-02-14T06:02:28;11.35;;;3.22;;
59024;SDS011;44806;48.008;13.666;2024-02-14T06:04:55;15.13;;;3.47;;
59024;SDS011;44806;48.008;13.666;2024-02-14T06:07:22;10.05;;;3.63;;
59024;SDS011;44806;48.008;13.666;2024-02-14T06:09:51;9.63;;;3.25;;
59024;SDS011;44806;48.008;13.666;2024-02-14T06:12:18;10.27;;;3.28;;
59024;SDS011;44806;48.008;13.666;2024-02-14T06:14:47;7.25;;;3.20;;
59024;SDS011;44806;48.008;13.666;2024-02-14T06:17:15;10.38;;;3.58;;
59024;SDS011;44806;48.008;13.666;2024-02-14T06:19:42;9.95;;;4.10;;
59024;SDS011;44806;48.008;13.666;2024-02-14T06:22:09;8.75;;;3.33;;
59024;SDS011;44806;48.008;13.666;2024-02-14T06:24:37;13.05;;;4.55;;
59024;SDS011;44806;48.008;13.666;2024-02-14T06:27:06;9.75;;;3.40;;
59024;SDS011;44806;48.008;13.666;2024-02-14T06:29:33;13.43;;;3.38;;
59024;SDS011;44806;48.008;13.666;2024-02-14T06:32:00;10.98;;;4.03;;
59024;SDS011;44806;48.008;13.666;2024-02-14T06:34:27;8.23;;;3.40;;
59024;SDS011;44806;48.008;13.666;2024-02-14T06:36:54;11.70;;;3.75;;
59024;SDS011;44806;48.008;13.666;2024-02-14T06:39:21;11.07;;;4.53;;
59024;SDS011;44806;48.008;13.666;2024-02-14T06:41:48;16.33;;;5.38;;
59024;SDS011;44806;48.008;13.666;2024-02-14T06:44:16;15.95;;;5.90;;
59024;SDS011;44806;48.008;13.666;2024-02-14T06:46:44;12.48;;;3.97;;
59024;SDS011;44806;48.008;13.666;2024-02-14T06:49:11;10.32;;;3.58;;
59024;SDS011;44806;48.008;13.666;2024-02-14T06:51:38;11.07;;;3.63;;
59024;SDS011;44806;48.008;13.666;2024-02-14T06:54:05;13.68;;;2.97;;
59024;SDS011;44806;48.008;13.666;2024-02-14T06:56:34;10.10;;;3.05;;
59024;SDS011;44806;48.008;13.666;2024-02-14T06:59:01;8.55;;;2.80;;
59024;SDS011;44806;48.008;13.666;2024-02-14T07:01:30;9.38;;;2.97;;
59024;SDS011;44806;48.008;13.666;2024-02-14T07:03:57;6.90;;;2.38;;
59024;SDS011;44806;48.008;13.666;2024-02-14T07:06:26;8.48;;;3.10;;
59024;SDS011;44806;48.008;13.666;2024-02-14T07:08:53;8.93;;;2.75;;
59024;SDS011;44806;48.008;13.666;2024-02-14T07:11:20;7.15;;;2.85;;
59024;SDS011;44806;48.008;13.666;2024-02-14T07:13:47;7.47;;;2.17;;
59024;SDS011;44806;48.008;13.666;2024-02-14T07:16:14;6.93;;;2.50;;
59024;SDS011;44806;48.008;13.666;2024-02-14T07:18:42;9.13;;;3.38;;
59024;SDS011;44806;48.008;13.666;2024-02-14T07:21:09;7.45;;;2.92;;
59024;SDS011;44806;48.008;13.666;2024-02-14T07:23:36;8.45;;;2.92;;
59024;SDS011;44806;48.008;13.666;2024-02-14T07:26:03;8.38;;;3.05;;
59024;SDS011;44806;48.008;13.666;2024-02-14T07:28:31;8.25;;;3.05;;
59024;SDS011;44806;48.008;13.666;2024-02-14T07:30:58;8.98;;;2.92;;
59024;SDS011;44806;48.008;13.666;2024-02-14T07:33:25;11.48;;;3.65;;
59024;SDS011;44806;48.008;13.666;2024-02-14T07:35:53;11.95;;;4.38;;
59024;SDS011;44806;48.008;13.666;2024-02-14T07:38:20;15.30;;;5.43;;
59024;SDS011;44806;48.008;13.666;2024-02-14T07:40:48;13.73;;;5.25;;
59024;SDS011;44806;48.008;13.666;2024-02-14T07:43:15;13.38;;;5.18;;
59024;SDS011;44806;48.008;13.666;2024-02-14T07:45:42;14.65;;;6.03;;
59024;SDS011;44806;48.008;13.666;2024-02-14T07:48:09;11.90;;;4.13;;
59024;SDS011;44806;48.008;13.666;2024-02-14T07:50:36;7.85;;;3.10;;
59024;SDS011;44806;48.008;13.666;2024-02-14T07:53:05;7.57;;;1.95;;
59024;SDS011;44806;48.008;13.666;2024-02-14T07:55:32;4.88;;;1.60;;
59024;SDS011;44806;48.008;13.666;2024-02-14T07:57:59;4.60;;;1.63;;
59024;SDS011;44806;48.008;13.666;2024-02-14T08:00:26;3.72;;;1.42;;
59024;SDS011;44806;48.008;13.666;2024-02-14T08:02:53;8.55;;;1.85;;
59024;SDS011;44806;48.008;13.666;2024-02-14T08:05:20;4.85;;;1.40;;
59024;SDS011;44806;48.008;13.666;2024-02-14T08:07:47;9.70;;;1.65;;
59024;SDS011;44806;48.008;13.666;2024-02-14T08:10:16;5.25;;;1.58;;
59024;SDS011;44806;48.008;13.666;2024-02-14T08:12:43;4.00;;;1.63;;
59024;SDS011;44806;48.008;13.666;2024-02-14T08:15:10;4.47;;;1.05;;
59024;SDS011;44806;48.008;13.666;2024-02-14T08:17:37;7.35;;;1.73;;
59024;SDS011;44806;48.008;13.666;2024-02-14T08:20:04;6.80;;;1.60;;
59024;SDS011;44806;48.008;13.666;2024-02-14T08:22:32;3.63;;;1.20;;
59024;SDS011;44806;48.008;13.666;2024-02-14T08:24:59;3.03;;;1.05;;
59024;SDS011;44806;48.008;13.666;2024-02-14T08:27:28;4.20;;;1.35;;
59024;SDS011;44806;48.008;13.666;2024-02-14T08:29:56;5.05;;;1.50;;
59024;SDS011;44806;48.008;13.666;2024-02-14T08:32:23;5.72;;;2.10;;
59024;SDS011;44806;48.008;13.666;2024-02-14T08:34:50;9.30;;;2.78;;
59024;SDS011;44806;48.008;13.666;2024-02-14T08:37:17;13.13;;;5.20;;
59024;SDS011;44806;48.008;13.666;2024-02-14T08:39:44;14.60;;;6.25;;
59024;SDS011;44806;48.008;13.666;2024-02-14T08:42:11;4.00;;;1.30;;
59024;SDS011;44806;48.008;13.666;2024-02-14T08:44:39;3.13;;;0.82;;
59024;SDS011;44806;48.008;13.666;2024-02-14T08:47:06;10.43;;;4.80;;
59024;SDS011;44806;48.008;13.666;2024-02-14T08:49:34;8.05;;;3.80;;
59024;SDS011;44806;48.008;13.666;2024-02-14T08:52:01;5.82;;;2.40;;
59024;SDS011;44806;48.008;13.666;2024-02-14T08:54:28;4.85;;;1.90;;
59024;SDS011;44806;48.008;13.666;2024-02-14T08:56:57;3.97;;;1.42;;
59024;SDS011;44806;48.008;13.666;2024-02-14T08:59:24;5.57;;;2.00;;
59024;SDS011;44806;48.008;13.666;2024-02-14T09:01:53;4.47;;;1.60;;
59024;SDS011;44806;48.008;13.666;2024-02-14T09:04:20;3.92;;;1.35;;
59024;SDS011;44806;48.008;13.666;2024-02-14T09:06:47;4.25;;;1.55;;
59024;SDS011;44806;48.008;13.666;2024-02-14T09:09:14;3.78;;;1.30;;
59024;SDS011;44806;48.008;13.666;2024-02-14T09:11:41;5.38;;;1.88;;
59024;SDS011;44806;48.008;13.666;2024-02-14T09:14:08;4.55;;;1.30;;
59024;SDS011;44806;48.008;13.666;2024-02-14T09:16:35;4.90;;;1.70;;
59024;SDS011;44806;48.008;13.666;2024-02-14T09:19:03;3.13;;;1.30;;
59024;SDS011;44806;48.008;13.666;2024-02-14T09:21:32;4.70;;;1.90;;
59024;SDS011;44806;48.008;13.666;2024-02-14T09:24:00;6.65;;;2.25;;
59024;SDS011;44806;48.008;13.666;2024-02-14T09:26:28;10.57;;;2.90;;
59024;SDS011;44806;48.008;13.666;2024-02-14T09:28:55;4.78;;;1.50;;
59024;SDS011;44806;48.008;13.666;2024-02-14T09:31:22;4.50;;;1.55;;
59024;SDS011;44806;48.008;13.666;2024-02-14T09:33:49;3.78;;;1.42;;
59024;SDS011;44806;48.008;13.666;2024-02-14T09:36:19;5.03;;;1.60;;
59024;SDS011;44806;48.008;13.666;2024-02-14T09:38:46;5.97;;;2.00;;
59024;SDS011;44806;48.008;13.666;2024-02-14T09:41:14;4.18;;;1.38;;
59024;SDS011;44806;48.008;13.666;2024-02-14T09:43:45;4.82;;;1.25;;
59024;SDS011;44806;48.008;13.666;2024-02-14T09:46:13;4.40;;;1.70;;
59024;SDS011;44806;48.008;13.666;2024-02-14T09:48:41;5.53;;;1.80;;
59024;SDS011;44806;48.008;13.666;2024-02-14T09:51:10;6.53;;;1.52;;
59024;SDS011;44806;48.008;13.666;2024-02-14T09:53:39;5.93;;;1.60;;
59024;SDS011;44806;48.008;13.666;2024-02-14T09:56:08;5.25;;;1.42;;
59024;SDS011;44806;48.008;13.666;2024-02-14T09:58:36;5.07;;;1.50;;
59024;SDS011;44806;48.008;13.666;2024-02-14T10:01:04;4.60;;;1.70;;
59024;SDS011;44806;48.008;13.666;2024-02-14T10:03:31;4.68;;;1.65;;
59024;SDS011;44806;48.008;13.666;2024-02-14T10:05:59;5.35;;;1.95;;
59024;SDS011;44806;48.008;13.666;2024-02-14T10:08:26;5.15;;;1.70;;
59024;SDS011;44806;48.008;13.666;2024-02-14T10:10:57;5.07;;;1.95;;
59024;SDS011;44806;48.008;13.666;2024-02-14T10:13:26;6.93;;;1.80;;
59024;SDS011;44806;48.008;13.666;2024-02-14T10:15:54;4.90;;;1.90;;
59024;SDS011;44806;48.008;13.666;2024-02-14T10:18:22;4.70;;;1.52;;
59024;SDS011;44806;48.008;13.666;2024-02-14T10:20:53;6.70;;;2.10;;
59024;SDS011;44806;48.008;13.666;2024-02-14T10:23:20;9.90;;;2.78;;
59024;SDS011;44806;48.008;13.666;2024-02-14T10:25:48;7.88;;;2.20;;
59024;SDS011;44806;48.008;13.666;2024-02-14T10:28:18;7.00;;;2.47;;
59024;SDS011;44806;48.008;13.666;2024-02-14T10:30:46;4.57;;;1.67;;
59024;SDS011;44806;48.008;13.666;2024-02-14T10:33:14;6.50;;;1.83;;
59024;SDS011;44806;48.008;13.666;2024-02-14T10:35:41;6.90;;;1.58;;
59024;SDS011;44806;48.008;13.666;2024-02-14T10:38:09;2.83;;;1.00;;
59024;SDS011;44806;48.008;13.666;2024-02-14T10:40:37;4.00;;;1.38;;
59024;SDS011;44806;48.008;13.666;2024-02-14T10:43:05;3.75;;;1.33;;
59024;SDS011;44806;48.008;13.666;2024-02-14T10:45:35;4.30;;;1.60;;
59024;SDS011;44806;48.008;13.666;2024-02-14T10:48:04;6.07;;;1.60;;
59024;SDS011;44806;48.008;13.666;2024-02-14T10:50:32;5.07;;;1.63;;
59024;SDS011;44806;48.008;13.666;2024-02-14T10:53:03;9.55;;;2.17;;
59024;SDS011;44806;48.008;13.666;2024-02-14T10:55:31;5.15;;;1.52;;
59024;SDS011;44806;48.008;13.666;2024-02-14T10:57:59;7.60;;;2.20;;
59024;SDS011;44806;48.008;13.666;2024-02-14T11:00:28;7.95;;;2.22;;
59024;SDS011;44806;48.008;13.666;2024-02-14T11:02:58;8.38;;;2.10;;
59024;SDS011;44806;48.008;13.666;2024-02-14T11:05:27;5.22;;;1.67;;
59024;SDS011;44806;48.008;13.666;2024-02-14T11:07:54;4.90;;;1.60;;
59024;SDS011;44806;48.008;13.666;2024-02-14T11:10:22;3.55;;;1.15;;
59024;SDS011;44806;48.008;13.666;2024-02-14T11:12:49;4.85;;;1.63;;
59024;SDS011;44806;48.008;13.666;2024-02-14T11:15:17;3.63;;;1.30;;
59024;SDS011;44806;48.008;13.666;2024-02-14T11:17:45;3.58;;;1.20;;
59024;SDS011;44806;48.008;13.666;2024-02-14T11:20:18;3.95;;;0.80;;
59024;SDS011;44806;48.008;13.666;2024-02-14T11:22:50;1.60;;;0.50;;
59024;SDS011;44806;48.008;13.666;2024-02-14T11:25:22;2.45;;;0.65;;
59024;SDS011;44806;48.008;13.666;2024-02-14T11:27:50;2.05;;;0.70;;
59024;SDS011;44806;48.008;13.666;2024-02-14T11:30:28;3.55;;;1.02;;
59024;SDS011;44806;48.008;13.666;2024-02-14T11:35:51;2.13;;;0.70;;
59024;SDS011;44806;48.008;13.666;2024-02-14T11:38:19;2.40;;;0.75;;
59024;SDS011;44806;48.008;13.666;2024-02-14T11:40:47;4.47;;;1.23;;
59024;SDS011;44806;48.008;13.666;2024-02-14T11:43:15;2.63;;;1.10;;
59024;SDS011;44806;48.008;13.666;2024-02-14T11:45:43;4.25;;;0.98;;
59024;SDS011;44806;48.008;13.666;2024-02-14T11:48:11;2.00;;;0.70;;
59024;SDS011;44806;48.008;13.666;2024-02-14T11:50:39;6.18;;;0.93;;
59024;SDS011;44806;48.008;13.666;2024-02-14T11:53:09;2.17;;;0.82;;
59024;SDS011;44806;48.008;13.666;2024-02-14T11:55:37;6.07;;;1.38;;
59024;SDS011;44806;48.008;13.666;2024-02-14T11:58:07;2.58;;;0.88;;
59024;SDS011;44806;48.008;13.666;2024-02-14T12:00:36;1.75;;;0.43;;
59024;SDS011;44806;48.008;13.666;2024-02-14T12:03:05;1.52;;;0.50;;
59024;SDS011;44806;48.008;13.666;2024-02-14T12:05:34;2.90;;;1.00;;
59024;SDS011;44806;48.008;13.666;2024-02-14T12:08:02;3.00;;;0.95;;
59024;SDS011;44806;48.008;13.666;2024-02-14T12:10:32;2.35;;;0.50;;
59024;SDS011;44806;48.008;13.666;2024-02-14T12:13:04;4.20;;;1.42;;
59024;SDS011;44806;48.008;13.666;2024-02-14T12:15:36;1.27;;;0.43;;
59024;SDS011;44806;48.008;13.666;2024-02-14T12:18:04;2.55;;;0.70;;
59024;SDS011;44806;48.008;13.666;2024-02-14T12:20:31;6.28;;;2.15;;
59024;SDS011;44806;48.008;13.666;2024-02-14T12:22:59;2.67;;;0.65;;
59024;SDS011;44806;48.008;13.666;2024-02-14T12:25:26;2.20;;;0.75;;
59024;SDS011;44806;48.008;13.666;2024-02-14T12:27:55;2.42;;;0.70;;
59024;SDS011;44806;48.008;13.666;2024-02-14T12:30:23;4.72;;;0.95;;
59024;SDS011;44806;48.008;13.666;2024-02-14T12:33:09;1.00;;;0.47;;
59024;SDS011;44806;48.008;13.666;2024-02-14T12:35:37;3.40;;;0.90;;
59024;SDS011;44806;48.008;13.666;2024-02-14T12:38:07;8.07;;;4.05;;
59024;SDS011;44806;48.008;13.666;2024-02-14T12:40:35;2.88;;;1.00;;
59024;SDS011;44806;48.008;13.666;2024-02-14T12:43:03;6.38;;;2.92;;
59024;SDS011;44806;48.008;13.666;2024-02-14T12:45:31;3.38;;;1.10;;
59024;SDS011;44806;48.008;13.666;2024-02-14T12:47:58;3.10;;;1.10;;
59024;SDS011;44806;48.008;13.666;2024-02-14T12:50:25;5.78;;;2.53;;
59024;SDS011;44806;48.008;13.666;2024-02-14T12:52:52;5.05;;;1.20;;
59024;SDS011;44806;48.008;13.666;2024-02-14T12:55:19;4.60;;;1.42;;
59024;SDS011;44806;48.008;13.666;2024-02-14T12:57:48;4.93;;;1.85;;
59024;SDS011;44806;48.008;13.666;2024-02-14T13:00:17;3.05;;;1.15;;
59024;SDS011;44806;48.008;13.666;2024-02-14T13:02:44;0.88;;;0.30;;
59024;SDS011;44806;48.008;13.666;2024-02-14T13:05:11;2.38;;;0.60;;
59024;SDS011;44806;48.008;13.666;2024-02-14T13:07:38;2.42;;;0.50;;
59024;SDS011;44806;48.008;13.666;2024-02-14T13:10:06;2.97;;;0.68;;
59024;SDS011;44806;48.008;13.666;2024-02-14T13:12:35;2.92;;;0.88;;
59024;SDS011;44806;48.008;13.666;2024-02-14T13:15:04;4.30;;;1.15;;
59024;SDS011;44806;48.008;13.666;2024-02-14T13:17:33;0.95;;;0.20;;
59024;SDS011;44806;48.008;13.666;2024-02-14T13:20:00;2.75;;;0.80;;
59024;SDS011;44806;48.008;13.666;2024-02-14T13:22:27;3.25;;;1.10;;
59024;SDS011;44806;48.008;13.666;2024-02-14T13:24:54;6.28;;;2.10;;
59024;SDS011;44806;48.008;13.666;2024-02-14T13:27:22;5.70;;;1.88;;
59024;SDS011;44806;48.008;13.666;2024-02-14T13:29:49;5.13;;;1.90;;
59024;SDS011;44806;48.008;13.666;2024-02-14T13:32:16;2.75;;;0.70;;
59024;SDS011;44806;48.008;13.666;2024-02-14T13:34:44;3.47;;;0.60;;
59024;SDS011;44806;48.008;13.666;2024-02-14T13:37:13;1.55;;;0.65;;
59024;SDS011;44806;48.008;13.666;2024-02-14T13:39:40;3.25;;;1.30;;
59024;SDS011;44806;48.008;13.666;2024-02-14T13:42:09;19.80;;;8.23;;
59024;SDS011;44806;48.008;13.666;2024-02-14T13:44:36;8.05;;;3.20;;
59024;SDS011;44806;48.008;13.666;2024-02-14T13:47:03;2.03;;;0.80;;
59024;SDS011;44806;48.008;13.666;2024-02-14T13:49:30;3.38;;;1.08;;
59024;SDS011;44806;48.008;13.666;2024-02-14T13:51:58;2.67;;;0.75;;
59024;SDS011;44806;48.008;13.666;2024-02-14T13:54:25;2.42;;;0.40;;
59024;SDS011;44806;48.008;13.666;2024-02-14T13:56:52;2.63;;;0.60;;
59024;SDS011;44806;48.008;13.666;2024-02-14T13:59:20;1.38;;;0.50;;
59024;SDS011;44806;48.008;13.666;2024-02-14T14:01:47;1.58;;;0.60;;
59024;SDS011;44806;48.008;13.666;2024-02-14T14:04:14;1.00;;;0.38;;
59024;SDS011;44806;48.008;13.666;2024-02-14T14:06:42;2.15;;;0.43;;
59024;SDS011;44806;48.008;13.666;2024-02-14T14:09:10;1.15;;;0.40;;
59024;SDS011;44806;48.008;13.666;2024-02-14T14:11:37;2.15;;;0.60;;
59024;SDS011;44806;48.008;13.666;2024-02-14T14:14:04;2.58;;;0.32;;
59024;SDS011;44806;48.008;13.666;2024-02-14T14:16:33;2.85;;;0.40;;
59024;SDS011;44806;48.008;13.666;2024-02-14T14:19:00;1.48;;;0.40;;
59024;SDS011;44806;48.008;13.666;2024-02-14T14:21:27;3.20;;;0.50;;
59024;SDS011;44806;48.008;13.666;2024-02-14T14:23:54;3.00;;;0.70;;
59024;SDS011;44806;48.008;13.666;2024-02-14T14:26:23;3.05;;;0.60;;
59024;SDS011;44806;48.008;13.666;2024-02-14T14:28:49;2.28;;;0.60;;
59024;SDS011;44806;48.008;13.666;2024-02-14T14:31:18;1.45;;;0.50;;
59024;SDS011;44806;48.008;13.666;2024-02-14T14:33:45;2.42;;;0.50;;
59024;SDS011;44806;48.008;13.666;2024-02-14T14:36:14;2.40;;;0.50;;
59024;SDS011;44806;48.008;13.666;2024-02-14T14:38:41;2.83;;;0.40;;
59024;SDS011;44806;48.008;13.666;2024-02-14T14:41:08;1.45;;;0.40;;